CDT,Max TemperatureF,Mean TemperatureF,Min TemperatureF,Max Dew PointF,MeanDew PointF,Min DewpointF,Max Humidity, Mean Humidity, Min Humidity, Max Sea Level PressureIn, Mean Sea Level PressureIn, Min Sea Level PressureIn, Max VisibilityMiles, Mean VisibilityMiles, Min VisibilityMiles, Max Wind SpeedMPH, Mean Wind SpeedMPH, Max Gust SpeedMPH,PrecipitationIn, CloudCover, Events, WindDirDegrees
2012-10-1,77,69,61,57,54,50,84,64,42,29.86,29.82,29.78,10,10,10,15,8,,0.00,0,,336
2012-10-2,75,66,57,55,50,46,89,62,36,29.97,29.92,29.85,10,10,10,12,8,16,0.00,0,,322
2012-10-3,79,64,50,58,53,49,100,75,35,30.03,29.98,29.94,10,10,8,14,6,23,0.00,0,,165
2012-10-4,84,70,57,63,57,52,93,69,46,30.16,30.10,30.03,10,10,10,20,8,,0.00,3,,176
2012-10-5,63,54,46,52,47,38,100,82,67,30.25,30.16,30.09,10,9,2,20,13,26,0.04,6,Rain,357
2012-10-6,51,46,41,42,37,31,86,71,48,30.34,30.30,30.25,10,10,10,17,10,22,0.00,6,Rain-Thunderstorm,21
2012-10-7,54,45,37,43,35,30,97,72,41,30.36,30.31,30.25,10,10,8,9,5,,0.13,3,Rain,332
2012-10-8,63,48,33,45,38,33,100,90,38,30.29,30.23,30.07,10,4,0,12,2,,0.00,3,Fog,161
2012-10-9,66,54,44,57,50,40,96,81,62,30.08,30.00,29.89,10,10,7,17,7,29,0.00,5,,147
2012-10-10,70,58,48,56,44,35,100,60,29,30.28,30.18,30.09,10,10,6,14,7,21,0.00,4,,56
2012-10-11,75,66,59,63,53,44,93,66,52,30.18,30.12,30.04,10,10,10,10,8,,0.00,6,,144
2012-10-12,69,65,62,66,64,61,100,95,87,30.23,30.16,30.09,10,7,1,28,9,33,0.12,6,Rain-Thunderstorm,141
2012-10-13,78,68,62,70,65,63,100,89,73,30.09,29.94,29.75,10,6,2,18,11,30,0.24,6,Rain-Thunderstorm,158
2012-10-14,77,68,57,63,53,46,90,64,33,30.08,29.94,29.75,10,10,4,17,12,25,0.00,0,,278
2012-10-15,82,64,46,54,49,46,100,68,28,30.09,30.01,29.91,10,9,2,12,5,17,0.00,0,,190
2012-10-16,79,66,55,55,49,47,75,55,34,29.91,29.77,29.63,10,10,10,20,10,28,0.00,0,,167
2012-10-17,80,68,55,64,56,37,90,70,43,29.81,29.59,29.48,10,10,10,20,11,31,0.00,4,,211
2012-10-18,70,59,48,37,28,19,61,34,15,29.93,29.87,29.81,10,10,10,24,11,39,0.00,3,,274
2012-10-19,69,58,46,39,30,24,76,38,24,29.93,29.88,29.85,10,9,7,20,12,31,0.00,2,,274
2012-10-20,81,61,41,55,47,39,96,64,36,29.88,29.82,29.73,10,10,9,12,7,,0.00,0,,152
2012-10-21,82,73,64,69,64,55,87,73,63,29.85,29.81,29.76,10,10,10,20,12,26,0.00,5,,154
2012-10-22,80,76,71,68,67,65,90,77,62,29.95,29.90,29.84,10,10,9,22,13,30,0.00,5,Rain,172
2012-10-23,79,74,66,68,66,64,90,81,69,29.94,29.88,29.84,10,10,10,21,11,30,0.00,5,,166
2012-10-24,82,72,64,66,63,60,93,74,49,29.95,29.88,29.78,10,10,10,20,10,29,0.00,2,,157
2012-10-25,73,60,46,65,52,37,100,81,66,30.20,29.98,29.76,10,9,5,29,15,36,0.03,6,Rain,336
2012-10-26,52,45,37,39,33,30,81,65,44,30.40,30.32,30.20,10,10,10,21,16,29,0.00,3,,359
2012-10-27,55,42,30,31,30,28,92,66,37,30.40,30.31,30.22,10,10,10,12,7,,0.00,0,,348
2012-10-28,57,42,28,34,30,26,92,65,30,30.35,30.29,30.23,10,10,8,8,5,,0.00,0,,350
2012-10-29,62,46,32,35,31,29,92,61,30,30.35,30.25,30.13,10,10,10,10,3,,0.00,0,,148
2012-10-30,73,54,36,42,37,33,89,60,27,30.12,30.01,29.91,10,10,10,12,6,,0.00,0,,172
2012-10-31,71,56,42,42,40,39,92,62,31,30.07,30.00,29.91,10,10,9,7,4,,0.00,0,,345